Terminal Aerodrome Forecast
Issued by NWS

Home | Current Version | Previous Version | Text Only | Print | Product List | Glossary On
Versions: 1 2 3 4 5 6 7 8 9 10 11 12 13 14
000
FTUS42 KTBW 211100
TAFPIE
TAF
KPIE 211121Z 2112/2212 VRB05KT P6SM BKN070 BKN150
     FM211400 15007KT P6SM SCT030 BKN070 BKN200
     FM211900 18007KT P6SM VCSH BKN060 OVC150
     FM220200 16005KT 6SM SHRA BKN040 OVC100
     FM220900 16006KT 5SM SHRA BKN030 OVC070=

USA.gov is the U.S. government's official web portal to all federal, state and local government web resources and services.